sensor_id;sensor_type;location;lat;lon;timestamp;P1;durP1;ratioP1;P2;durP2;ratioP2
7047;SDS011;3565;53.254;10.352;2023-08-06T00:01:21;7.27;;;5.50;;
7047;SDS011;3565;53.254;10.352;2023-08-06T00:06:28;7.40;;;5.60;;
7047;SDS011;3565;53.254;10.352;2023-08-06T00:08:58;8.10;;;5.27;;
7047;SDS011;3565;53.254;10.352;2023-08-06T00:11:27;7.93;;;6.13;;
7047;SDS011;3565;53.254;10.352;2023-08-06T00:13:56;7.03;;;5.60;;
7047;SDS011;3565;53.254;10.352;2023-08-06T00:16:25;8.07;;;6.30;;
7047;SDS011;3565;53.254;10.352;2023-08-06T00:18:54;6.13;;;5.53;;
7047;SDS011;3565;53.254;10.352;2023-08-06T00:21:23;6.00;;;5.30;;
7047;SDS011;3565;53.254;10.352;2023-08-06T00:23:54;9.27;;;6.10;;
7047;SDS011;3565;53.254;10.352;2023-08-06T00:26:23;7.00;;;5.97;;
7047;SDS011;3565;53.254;10.352;2023-08-06T00:31:29;7.67;;;6.23;;
7047;SDS011;3565;53.254;10.352;2023-08-06T00:34:00;7.80;;;6.03;;
7047;SDS011;3565;53.254;10.352;2023-08-06T00:36:30;8.43;;;6.07;;
7047;SDS011;3565;53.254;10.352;2023-08-06T00:38:58;7.00;;;5.87;;
7047;SDS011;3565;53.254;10.352;2023-08-06T00:41:28;7.03;;;6.20;;
7047;SDS011;3565;53.254;10.352;2023-08-06T00:43:57;6.80;;;6.10;;
7047;SDS011;3565;53.254;10.352;2023-08-06T00:46:26;8.07;;;6.23;;
7047;SDS011;3565;53.254;10.352;2023-08-06T00:48:56;8.23;;;6.43;;
7047;SDS011;3565;53.254;10.352;2023-08-06T00:51:25;7.57;;;6.33;;
7047;SDS011;3565;53.254;10.352;2023-08-06T00:53:54;9.33;;;6.90;;
7047;SDS011;3565;53.254;10.352;2023-08-06T00:56:24;9.33;;;7.33;;
7047;SDS011;3565;53.254;10.352;2023-08-06T00:58:54;8.43;;;6.47;;
7047;SDS011;3565;53.254;10.352;2023-08-06T01:01:23;9.07;;;6.77;;
7047;SDS011;3565;53.254;10.352;2023-08-06T01:06:38;6.87;;;5.77;;
7047;SDS011;3565;53.254;10.352;2023-08-06T01:09:21;7.13;;;6.00;;
7047;SDS011;3565;53.254;10.352;2023-08-06T01:14:33;8.97;;;6.90;;
7047;SDS011;3565;53.254;10.352;2023-08-06T01:19:40;7.17;;;5.90;;
7047;SDS011;3565;53.254;10.352;2023-08-06T01:22:09;6.63;;;5.80;;
7047;SDS011;3565;53.254;10.352;2023-08-06T01:24:38;8.83;;;6.30;;
7047;SDS011;3565;53.254;10.352;2023-08-06T01:29:47;7.17;;;6.00;;
7047;SDS011;3565;53.254;10.352;2023-08-06T01:34:56;7.30;;;5.80;;
7047;SDS011;3565;53.254;10.352;2023-08-06T01:40:08;5.87;;;5.13;;
7047;SDS011;3565;53.254;10.352;2023-08-06T01:42:40;7.23;;;5.67;;
7047;SDS011;3565;53.254;10.352;2023-08-06T01:45:10;7.10;;;5.83;;
7047;SDS011;3565;53.254;10.352;2023-08-06T01:50:18;5.20;;;4.70;;
7047;SDS011;3565;53.254;10.352;2023-08-06T01:52:47;6.70;;;5.17;;
7047;SDS011;3565;53.254;10.352;2023-08-06T01:55:17;7.67;;;5.67;;
7047;SDS011;3565;53.254;10.352;2023-08-06T02:00:23;6.60;;;5.47;;
7047;SDS011;3565;53.254;10.352;2023-08-06T02:02:54;6.00;;;5.00;;
7047;SDS011;3565;53.254;10.352;2023-08-06T02:05:23;6.53;;;5.60;;
7047;SDS011;3565;53.254;10.352;2023-08-06T02:10:29;6.87;;;5.40;;
7047;SDS011;3565;53.254;10.352;2023-08-06T02:12:58;7.27;;;5.20;;
7047;SDS011;3565;53.254;10.352;2023-08-06T02:15:28;5.77;;;5.20;;
7047;SDS011;3565;53.254;10.352;2023-08-06T02:17:57;8.53;;;5.20;;
7047;SDS011;3565;53.254;10.352;2023-08-06T02:20:29;5.63;;;5.00;;
7047;SDS011;3565;53.254;10.352;2023-08-06T02:22:58;5.10;;;4.60;;
7047;SDS011;3565;53.254;10.352;2023-08-06T02:25:27;5.73;;;5.13;;
7047;SDS011;3565;53.254;10.352;2023-08-06T02:27:56;5.73;;;4.93;;
7047;SDS011;3565;53.254;10.352;2023-08-06T02:30:25;5.93;;;5.20;;
7047;SDS011;3565;53.254;10.352;2023-08-06T02:32:54;6.20;;;5.60;;
7047;SDS011;3565;53.254;10.352;2023-08-06T02:35:24;6.27;;;5.67;;
7047;SDS011;3565;53.254;10.352;2023-08-06T02:37:53;8.07;;;5.60;;
7047;SDS011;3565;53.254;10.352;2023-08-06T02:40:22;6.03;;;5.40;;
7047;SDS011;3565;53.254;10.352;2023-08-06T02:45:29;6.17;;;5.57;;
7047;SDS011;3565;53.254;10.352;2023-08-06T02:47:58;5.60;;;4.90;;
7047;SDS011;3565;53.254;10.352;2023-08-06T02:50:28;7.00;;;5.80;;
7047;SDS011;3565;53.254;10.352;2023-08-06T02:52:57;5.97;;;5.37;;
7047;SDS011;3565;53.254;10.352;2023-08-06T02:55:27;9.00;;;6.10;;
7047;SDS011;3565;53.254;10.352;2023-08-06T02:57:58;6.60;;;5.43;;
7047;SDS011;3565;53.254;10.352;2023-08-06T03:00:26;9.10;;;6.30;;
7047;SDS011;3565;53.254;10.352;2023-08-06T03:02:55;6.27;;;5.50;;
7047;SDS011;3565;53.254;10.352;2023-08-06T03:05:25;6.93;;;5.80;;
7047;SDS011;3565;53.254;10.352;2023-08-06T03:07:53;8.13;;;6.67;;
7047;SDS011;3565;53.254;10.352;2023-08-06T03:10:23;7.20;;;5.87;;
7047;SDS011;3565;53.254;10.352;2023-08-06T03:15:29;7.53;;;5.33;;
7047;SDS011;3565;53.254;10.352;2023-08-06T03:17:58;6.17;;;5.43;;
7047;SDS011;3565;53.254;10.352;2023-08-06T03:20:27;6.77;;;5.30;;
7047;SDS011;3565;53.254;10.352;2023-08-06T03:22:56;6.23;;;5.50;;
7047;SDS011;3565;53.254;10.352;2023-08-06T03:25:25;6.40;;;5.10;;
7047;SDS011;3565;53.254;10.352;2023-08-06T03:27:55;7.33;;;6.20;;
7047;SDS011;3565;53.254;10.352;2023-08-06T03:30:24;8.00;;;5.93;;
7047;SDS011;3565;53.254;10.352;2023-08-06T03:35:30;7.40;;;5.90;;
7047;SDS011;3565;53.254;10.352;2023-08-06T03:37:59;8.37;;;5.93;;
7047;SDS011;3565;53.254;10.352;2023-08-06T03:40:28;8.80;;;6.07;;
7047;SDS011;3565;53.254;10.352;2023-08-06T03:42:57;7.10;;;6.00;;
7047;SDS011;3565;53.254;10.352;2023-08-06T03:45:26;9.40;;;5.83;;
7047;SDS011;3565;53.254;10.352;2023-08-06T03:47:55;7.67;;;6.10;;
7047;SDS011;3565;53.254;10.352;2023-08-06T03:50:34;10.50;;;6.83;;
7047;SDS011;3565;53.254;10.352;2023-08-06T03:53:04;7.30;;;5.73;;
7047;SDS011;3565;53.254;10.352;2023-08-06T03:55:33;8.07;;;5.67;;
7047;SDS011;3565;53.254;10.352;2023-08-06T03:58:02;6.67;;;5.63;;
7047;SDS011;3565;53.254;10.352;2023-08-06T04:00:31;7.67;;;6.50;;
7047;SDS011;3565;53.254;10.352;2023-08-06T04:03:00;8.77;;;6.03;;
7047;SDS011;3565;53.254;10.352;2023-08-06T04:05:31;7.57;;;5.67;;
7047;SDS011;3565;53.254;10.352;2023-08-06T04:08:00;6.43;;;5.30;;
7047;SDS011;3565;53.254;10.352;2023-08-06T04:10:30;7.30;;;6.00;;
7047;SDS011;3565;53.254;10.352;2023-08-06T04:12:59;7.60;;;5.60;;
7047;SDS011;3565;53.254;10.352;2023-08-06T04:15:28;6.23;;;5.17;;
7047;SDS011;3565;53.254;10.352;2023-08-06T04:17:57;9.60;;;5.67;;
7047;SDS011;3565;53.254;10.352;2023-08-06T04:20:26;8.67;;;5.67;;
7047;SDS011;3565;53.254;10.352;2023-08-06T04:22:56;7.73;;;5.30;;
7047;SDS011;3565;53.254;10.352;2023-08-06T04:25:25;9.63;;;6.37;;
7047;SDS011;3565;53.254;10.352;2023-08-06T04:27:54;6.70;;;5.33;;
7047;SDS011;3565;53.254;10.352;2023-08-06T04:30:23;8.20;;;5.80;;
7047;SDS011;3565;53.254;10.352;2023-08-06T04:35:29;8.33;;;5.90;;
7047;SDS011;3565;53.254;10.352;2023-08-06T04:37:58;7.27;;;5.43;;
7047;SDS011;3565;53.254;10.352;2023-08-06T04:40:28;6.70;;;5.90;;
7047;SDS011;3565;53.254;10.352;2023-08-06T04:42:57;6.17;;;5.27;;
7047;SDS011;3565;53.254;10.352;2023-08-06T04:45:27;6.57;;;5.97;;
7047;SDS011;3565;53.254;10.352;2023-08-06T04:48:05;7.33;;;5.67;;
7047;SDS011;3565;53.254;10.352;2023-08-06T04:50:34;6.70;;;5.10;;
7047;SDS011;3565;53.254;10.352;2023-08-06T04:53:03;6.80;;;5.27;;
7047;SDS011;3565;53.254;10.352;2023-08-06T04:55:32;8.23;;;5.60;;
7047;SDS011;3565;53.254;10.352;2023-08-06T04:58:02;7.47;;;5.20;;
7047;SDS011;3565;53.254;10.352;2023-08-06T05:00:31;7.37;;;4.80;;
7047;SDS011;3565;53.254;10.352;2023-08-06T05:03:00;8.50;;;5.83;;
7047;SDS011;3565;53.254;10.352;2023-08-06T05:05:29;7.57;;;6.07;;
7047;SDS011;3565;53.254;10.352;2023-08-06T05:07:58;7.87;;;5.07;;
7047;SDS011;3565;53.254;10.352;2023-08-06T05:10:28;8.40;;;5.87;;
7047;SDS011;3565;53.254;10.352;2023-08-06T05:12:57;8.40;;;6.37;;
7047;SDS011;3565;53.254;10.352;2023-08-06T05:15:27;6.10;;;5.37;;
7047;SDS011;3565;53.254;10.352;2023-08-06T05:17:57;6.53;;;5.07;;
7047;SDS011;3565;53.254;10.352;2023-08-06T05:20:26;7.10;;;5.50;;
7047;SDS011;3565;53.254;10.352;2023-08-06T05:22:55;7.53;;;5.00;;
7047;SDS011;3565;53.254;10.352;2023-08-06T05:25:24;11.57;;;6.40;;
7047;SDS011;3565;53.254;10.352;2023-08-06T05:30:31;6.13;;;5.50;;
7047;SDS011;3565;53.254;10.352;2023-08-06T05:33:00;9.30;;;6.50;;
7047;SDS011;3565;53.254;10.352;2023-08-06T05:35:29;6.83;;;5.30;;
7047;SDS011;3565;53.254;10.352;2023-08-06T05:37:58;7.67;;;6.50;;
7047;SDS011;3565;53.254;10.352;2023-08-06T05:40:27;7.57;;;6.17;;
7047;SDS011;3565;53.254;10.352;2023-08-06T05:42:57;7.63;;;5.90;;
7047;SDS011;3565;53.254;10.352;2023-08-06T05:45:26;8.97;;;6.70;;
7047;SDS011;3565;53.254;10.352;2023-08-06T05:47:55;8.73;;;7.20;;
7047;SDS011;3565;53.254;10.352;2023-08-06T05:50:24;6.60;;;5.83;;
7047;SDS011;3565;53.254;10.352;2023-08-06T05:55:30;6.90;;;5.87;;
7047;SDS011;3565;53.254;10.352;2023-08-06T05:58:00;7.93;;;5.70;;
7047;SDS011;3565;53.254;10.352;2023-08-06T06:00:30;7.63;;;5.40;;
7047;SDS011;3565;53.254;10.352;2023-08-06T06:02:59;7.93;;;5.40;;
7047;SDS011;3565;53.254;10.352;2023-08-06T06:05:28;8.33;;;5.50;;
7047;SDS011;3565;53.254;10.352;2023-08-06T06:08:07;5.90;;;5.30;;
7047;SDS011;3565;53.254;10.352;2023-08-06T06:10:36;5.80;;;5.00;;
7047;SDS011;3565;53.254;10.352;2023-08-06T06:13:05;5.83;;;5.23;;
7047;SDS011;3565;53.254;10.352;2023-08-06T06:15:34;6.83;;;5.33;;
7047;SDS011;3565;53.254;10.352;2023-08-06T06:18:04;9.93;;;5.83;;
7047;SDS011;3565;53.254;10.352;2023-08-06T06:20:33;7.53;;;5.50;;
7047;SDS011;3565;53.254;10.352;2023-08-06T06:23:02;10.67;;;5.20;;
7047;SDS011;3565;53.254;10.352;2023-08-06T06:25:31;5.00;;;4.50;;
7047;SDS011;3565;53.254;10.352;2023-08-06T06:30:38;10.50;;;5.23;;
7047;SDS011;3565;53.254;10.352;2023-08-06T06:35:46;9.03;;;5.30;;
7047;SDS011;3565;53.254;10.352;2023-08-06T06:38:16;5.83;;;5.07;;
7047;SDS011;3565;53.254;10.352;2023-08-06T06:43:30;6.93;;;4.77;;
7047;SDS011;3565;53.254;10.352;2023-08-06T06:45:59;6.40;;;5.27;;
7047;SDS011;3565;53.254;10.352;2023-08-06T06:51:06;7.70;;;5.33;;
7047;SDS011;3565;53.254;10.352;2023-08-06T06:56:12;6.13;;;4.70;;
7047;SDS011;3565;53.254;10.352;2023-08-06T06:58:41;6.63;;;4.87;;
7047;SDS011;3565;53.254;10.352;2023-08-06T07:01:10;5.57;;;4.67;;
7047;SDS011;3565;53.254;10.352;2023-08-06T07:06:16;7.47;;;5.53;;
7047;SDS011;3565;53.254;10.352;2023-08-06T07:08:45;5.27;;;4.57;;
7047;SDS011;3565;53.254;10.352;2023-08-06T07:11:14;7.23;;;4.83;;
7047;SDS011;3565;53.254;10.352;2023-08-06T07:16:20;6.30;;;5.23;;
7047;SDS011;3565;53.254;10.352;2023-08-06T07:18:50;5.73;;;5.10;;
7047;SDS011;3565;53.254;10.352;2023-08-06T07:21:21;7.30;;;5.57;;
7047;SDS011;3565;53.254;10.352;2023-08-06T07:26:27;5.40;;;4.83;;
7047;SDS011;3565;53.254;10.352;2023-08-06T07:28:56;6.80;;;4.90;;
7047;SDS011;3565;53.254;10.352;2023-08-06T07:31:25;6.20;;;5.60;;
7047;SDS011;3565;53.254;10.352;2023-08-06T07:33:54;6.20;;;5.03;;
7047;SDS011;3565;53.254;10.352;2023-08-06T07:36:23;7.57;;;5.33;;
7047;SDS011;3565;53.254;10.352;2023-08-06T07:38:52;6.00;;;5.20;;
7047;SDS011;3565;53.254;10.352;2023-08-06T07:41:23;8.07;;;5.67;;
7047;SDS011;3565;53.254;10.352;2023-08-06T07:43:52;6.67;;;5.77;;
7047;SDS011;3565;53.254;10.352;2023-08-06T07:46:21;6.30;;;5.60;;
7047;SDS011;3565;53.254;10.352;2023-08-06T07:51:27;6.93;;;5.30;;
7047;SDS011;3565;53.254;10.352;2023-08-06T07:53:56;7.53;;;5.80;;
7047;SDS011;3565;53.254;10.352;2023-08-06T07:56:25;8.90;;;6.37;;
7047;SDS011;3565;53.254;10.352;2023-08-06T08:01:31;6.33;;;5.50;;
7047;SDS011;3565;53.254;10.352;2023-08-06T08:04:00;7.43;;;6.27;;
7047;SDS011;3565;53.254;10.352;2023-08-06T08:06:30;6.70;;;5.90;;
7047;SDS011;3565;53.254;10.352;2023-08-06T08:09:00;7.43;;;6.07;;
7047;SDS011;3565;53.254;10.352;2023-08-06T08:11:30;8.80;;;5.93;;
7047;SDS011;3565;53.254;10.352;2023-08-06T08:13:59;7.73;;;6.30;;
7047;SDS011;3565;53.254;10.352;2023-08-06T08:16:30;8.50;;;6.47;;
7047;SDS011;3565;53.254;10.352;2023-08-06T08:18:59;8.03;;;7.23;;
7047;SDS011;3565;53.254;10.352;2023-08-06T08:21:29;9.37;;;7.17;;
7047;SDS011;3565;53.254;10.352;2023-08-06T08:23:59;10.90;;;7.03;;
7047;SDS011;3565;53.254;10.352;2023-08-06T08:26:28;7.87;;;7.03;;
7047;SDS011;3565;53.254;10.352;2023-08-06T08:28:57;7.33;;;6.50;;
7047;SDS011;3565;53.254;10.352;2023-08-06T08:31:26;10.57;;;7.60;;
7047;SDS011;3565;53.254;10.352;2023-08-06T08:33:56;10.37;;;7.53;;
7047;SDS011;3565;53.254;10.352;2023-08-06T08:36:26;13.27;;;7.07;;
7047;SDS011;3565;53.254;10.352;2023-08-06T08:38:56;9.87;;;7.30;;
7047;SDS011;3565;53.254;10.352;2023-08-06T08:41:25;10.33;;;7.17;;
7047;SDS011;3565;53.254;10.352;2023-08-06T08:43:56;11.50;;;6.87;;
7047;SDS011;3565;53.254;10.352;2023-08-06T08:46:28;11.90;;;7.43;;
7047;SDS011;3565;53.254;10.352;2023-08-06T08:48:59;9.20;;;7.27;;
7047;SDS011;3565;53.254;10.352;2023-08-06T08:51:29;8.43;;;7.13;;
7047;SDS011;3565;53.254;10.352;2023-08-06T08:54:00;8.77;;;6.73;;
7047;SDS011;3565;53.254;10.352;2023-08-06T08:56:31;10.97;;;6.30;;
7047;SDS011;3565;53.254;10.352;2023-08-06T08:59:10;10.63;;;7.43;;
7047;SDS011;3565;53.254;10.352;2023-08-06T09:01:39;8.57;;;6.83;;
7047;SDS011;3565;53.254;10.352;2023-08-06T09:04:09;7.93;;;6.27;;
7047;SDS011;3565;53.254;10.352;2023-08-06T09:09:16;9.40;;;7.50;;
7047;SDS011;3565;53.254;10.352;2023-08-06T09:14:25;8.27;;;6.77;;
7047;SDS011;3565;53.254;10.352;2023-08-06T09:16:55;9.70;;;7.00;;
7047;SDS011;3565;53.254;10.352;2023-08-06T09:19:24;8.90;;;6.20;;
7047;SDS011;3565;53.254;10.352;2023-08-06T09:21:55;7.67;;;6.60;;
7047;SDS011;3565;53.254;10.352;2023-08-06T09:24:25;6.73;;;6.07;;
7047;SDS011;3565;53.254;10.352;2023-08-06T09:29:31;9.93;;;7.70;;
7047;SDS011;3565;53.254;10.352;2023-08-06T09:34:39;12.10;;;7.20;;
7047;SDS011;3565;53.254;10.352;2023-08-06T09:37:09;7.97;;;6.13;;
7047;SDS011;3565;53.254;10.352;2023-08-06T09:39:39;8.53;;;6.70;;
7047;SDS011;3565;53.254;10.352;2023-08-06T09:44:45;9.87;;;7.00;;
7047;SDS011;3565;53.254;10.352;2023-08-06T09:47:15;7.73;;;6.73;;
7047;SDS011;3565;53.254;10.352;2023-08-06T09:49:44;7.80;;;6.70;;
7047;SDS011;3565;53.254;10.352;2023-08-06T09:54:51;9.23;;;7.40;;
7047;SDS011;3565;53.254;10.352;2023-08-06T09:57:21;7.70;;;6.77;;
7047;SDS011;3565;53.254;10.352;2023-08-06T09:59:52;10.87;;;7.77;;
7047;SDS011;3565;53.254;10.352;2023-08-06T10:02:21;10.60;;;6.93;;
7047;SDS011;3565;53.254;10.352;2023-08-06T10:05:01;8.43;;;6.77;;
7047;SDS011;3565;53.254;10.352;2023-08-06T10:07:32;8.70;;;7.33;;
7047;SDS011;3565;53.254;10.352;2023-08-06T10:10:03;8.57;;;7.67;;
7047;SDS011;3565;53.254;10.352;2023-08-06T10:15:12;11.27;;;8.10;;
7047;SDS011;3565;53.254;10.352;2023-08-06T10:17:44;10.47;;;8.37;;
7047;SDS011;3565;53.254;10.352;2023-08-06T10:20:15;10.03;;;7.93;;
7047;SDS011;3565;53.254;10.352;2023-08-06T10:25:22;10.87;;;7.87;;
7047;SDS011;3565;53.254;10.352;2023-08-06T10:27:56;8.67;;;7.43;;
7047;SDS011;3565;53.254;10.352;2023-08-06T10:30:25;9.80;;;7.63;;
7047;SDS011;3565;53.254;10.352;2023-08-06T10:32:56;8.47;;;7.13;;
7047;SDS011;3565;53.254;10.352;2023-08-06T10:38:17;12.33;;;7.30;;
7047;SDS011;3565;53.254;10.352;2023-08-06T10:43:26;9.27;;;7.20;;
7047;SDS011;3565;53.254;10.352;2023-08-06T10:45:58;8.70;;;7.13;;
7047;SDS011;3565;53.254;10.352;2023-08-06T10:51:08;9.60;;;7.23;;
7047;SDS011;3565;53.254;10.352;2023-08-06T10:53:41;7.23;;;6.23;;
7047;SDS011;3565;53.254;10.352;2023-08-06T10:58:53;9.57;;;7.03;;
7047;SDS011;3565;53.254;10.352;2023-08-06T11:01:23;6.20;;;5.60;;
7047;SDS011;3565;53.254;10.352;2023-08-06T11:03:53;8.33;;;7.17;;
7047;SDS011;3565;53.254;10.352;2023-08-06T11:06:23;7.70;;;6.57;;
7047;SDS011;3565;53.254;10.352;2023-08-06T11:11:30;9.30;;;6.70;;
7047;SDS011;3565;53.254;10.352;2023-08-06T11:13:59;7.17;;;6.47;;
7047;SDS011;3565;53.254;10.352;2023-08-06T11:16:28;6.20;;;5.60;;
7047;SDS011;3565;53.254;10.352;2023-08-06T11:18:58;8.30;;;6.03;;
7047;SDS011;3565;53.254;10.352;2023-08-06T11:21:28;8.50;;;6.50;;
7047;SDS011;3565;53.254;10.352;2023-08-06T11:23:57;7.33;;;6.30;;
7047;SDS011;3565;53.254;10.352;2023-08-06T11:26:27;8.37;;;6.30;;
7047;SDS011;3565;53.254;10.352;2023-08-06T11:28:56;6.23;;;5.63;;
7047;SDS011;3565;53.254;10.352;2023-08-06T11:31:27;6.53;;;5.23;;
7047;SDS011;3565;53.254;10.352;2023-08-06T11:33:56;7.03;;;5.47;;
7047;SDS011;3565;53.254;10.352;2023-08-06T11:36:29;7.20;;;5.47;;
7047;SDS011;3565;53.254;10.352;2023-08-06T11:38:59;5.57;;;5.00;;
7047;SDS011;3565;53.254;10.352;2023-08-06T11:41:31;5.70;;;4.83;;
7047;SDS011;3565;53.254;10.352;2023-08-06T11:44:02;5.13;;;4.10;;
7047;SDS011;3565;53.254;10.352;2023-08-06T11:46:49;4.50;;;4.10;;
7047;SDS011;3565;53.254;10.352;2023-08-06T11:49:21;5.43;;;4.00;;
7047;SDS011;3565;53.254;10.352;2023-08-06T11:55:00;4.43;;;3.83;;
7047;SDS011;3565;53.254;10.352;2023-08-06T12:00:10;3.90;;;3.50;;
7047;SDS011;3565;53.254;10.352;2023-08-06T12:02:40;3.97;;;3.63;;
7047;SDS011;3565;53.254;10.352;2023-08-06T12:05:12;4.60;;;4.10;;
7047;SDS011;3565;53.254;10.352;2023-08-06T12:10:21;4.17;;;3.77;;
7047;SDS011;3565;53.254;10.352;2023-08-06T12:12:52;4.40;;;3.90;;
7047;SDS011;3565;53.254;10.352;2023-08-06T12:15:22;4.67;;;4.27;;
7047;SDS011;3565;53.254;10.352;2023-08-06T12:17:52;4.93;;;4.10;;
7047;SDS011;3565;53.254;10.352;2023-08-06T12:20:22;4.87;;;4.47;;
7047;SDS011;3565;53.254;10.352;2023-08-06T12:22:51;4.80;;;4.40;;
7047;SDS011;3565;53.254;10.352;2023-08-06T12:25:20;4.50;;;4.10;;
7047;SDS011;3565;53.254;10.352;2023-08-06T12:27:50;4.90;;;4.17;;
7047;SDS011;3565;53.254;10.352;2023-08-06T12:30:19;3.97;;;3.57;;
7047;SDS011;3565;53.254;10.352;2023-08-06T12:32:48;4.57;;;4.03;;
7047;SDS011;3565;53.254;10.352;2023-08-06T12:35:18;5.77;;;4.40;;
7047;SDS011;3565;53.254;10.352;2023-08-06T12:37:47;7.20;;;4.30;;
7047;SDS011;3565;53.254;10.352;2023-08-06T12:40:17;4.37;;;3.97;;
7047;SDS011;3565;53.254;10.352;2023-08-06T12:45:26;4.60;;;4.20;;
7047;SDS011;3565;53.254;10.352;2023-08-06T12:47:55;5.03;;;4.00;;
7047;SDS011;3565;53.254;10.352;2023-08-06T12:50:24;4.70;;;4.17;;
7047;SDS011;3565;53.254;10.352;2023-08-06T12:55:30;4.60;;;4.20;;
7047;SDS011;3565;53.254;10.352;2023-08-06T12:57:59;5.40;;;4.20;;
7047;SDS011;3565;53.254;10.352;2023-08-06T13:00:37;4.30;;;3.90;;
7047;SDS011;3565;53.254;10.352;2023-08-06T13:05:44;4.85;;;4.45;;
7047;SDS011;3565;53.254;10.352;2023-08-06T13:08:14;5.33;;;4.70;;
7047;SDS011;3565;53.254;10.352;2023-08-06T13:10:43;4.47;;;4.07;;
7047;SDS011;3565;53.254;10.352;2023-08-06T13:15:49;5.03;;;4.53;;
7047;SDS011;3565;53.254;10.352;2023-08-06T13:18:18;4.33;;;3.93;;
7047;SDS011;3565;53.254;10.352;2023-08-06T13:20:47;4.30;;;3.90;;
7047;SDS011;3565;53.254;10.352;2023-08-06T13:23:18;4.60;;;4.20;;
7047;SDS011;3565;53.254;10.352;2023-08-06T13:25:56;5.30;;;4.77;;
7047;SDS011;3565;53.254;10.352;2023-08-06T13:28:25;6.17;;;4.30;;
7047;SDS011;3565;53.254;10.352;2023-08-06T13:30:54;5.40;;;4.90;;
7047;SDS011;3565;53.254;10.352;2023-08-06T13:36:00;5.53;;;5.03;;
7047;SDS011;3565;53.254;10.352;2023-08-06T13:38:30;7.57;;;5.30;;
7047;SDS011;3565;53.254;10.352;2023-08-06T13:41:00;6.27;;;5.43;;
7047;SDS011;3565;53.254;10.352;2023-08-06T13:46:06;6.50;;;5.90;;
7047;SDS011;3565;53.254;10.352;2023-08-06T13:48:35;7.00;;;5.10;;
7047;SDS011;3565;53.254;10.352;2023-08-06T13:51:04;6.23;;;4.90;;
7047;SDS011;3565;53.254;10.352;2023-08-06T13:56:12;5.57;;;5.07;;
7047;SDS011;3565;53.254;10.352;2023-08-06T13:58:43;6.77;;;5.50;;
7047;SDS011;3565;53.254;10.352;2023-08-06T14:01:12;5.50;;;5.00;;
7047;SDS011;3565;53.254;10.352;2023-08-06T14:06:20;6.07;;;5.37;;
7047;SDS011;3565;53.254;10.352;2023-08-06T14:08:49;6.40;;;5.80;;
7047;SDS011;3565;53.254;10.352;2023-08-06T14:11:18;5.80;;;5.23;;
7047;SDS011;3565;53.254;10.352;2023-08-06T14:16:27;6.37;;;5.70;;
7047;SDS011;3565;53.254;10.352;2023-08-06T14:18:56;5.43;;;4.90;;
7047;SDS011;3565;53.254;10.352;2023-08-06T14:21:25;5.97;;;5.23;;
7047;SDS011;3565;53.254;10.352;2023-08-06T14:26:32;9.47;;;6.27;;
7047;SDS011;3565;53.254;10.352;2023-08-06T14:29:01;6.73;;;5.90;;
7047;SDS011;3565;53.254;10.352;2023-08-06T14:31:30;5.93;;;5.30;;
7047;SDS011;3565;53.254;10.352;2023-08-06T14:33:59;8.47;;;6.00;;
7047;SDS011;3565;53.254;10.352;2023-08-06T14:36:28;6.60;;;5.40;;
7047;SDS011;3565;53.254;10.352;2023-08-06T14:38:57;7.07;;;6.17;;
7047;SDS011;3565;53.254;10.352;2023-08-06T14:41:26;8.87;;;5.83;;
7047;SDS011;3565;53.254;10.352;2023-08-06T14:43:55;8.97;;;6.10;;
7047;SDS011;3565;53.254;10.352;2023-08-06T14:46:25;6.93;;;5.50;;
7047;SDS011;3565;53.254;10.352;2023-08-06T14:48:54;6.97;;;5.90;;
7047;SDS011;3565;53.254;10.352;2023-08-06T14:51:24;6.50;;;5.03;;
7047;SDS011;3565;53.254;10.352;2023-08-06T14:53:55;6.30;;;5.13;;
7047;SDS011;3565;53.254;10.352;2023-08-06T14:56:24;6.50;;;5.60;;
7047;SDS011;3565;53.254;10.352;2023-08-06T15:01:31;5.33;;;4.60;;
7047;SDS011;3565;53.254;10.352;2023-08-06T15:04:01;6.50;;;4.67;;
7047;SDS011;3565;53.254;10.352;2023-08-06T15:06:30;4.90;;;4.40;;
7047;SDS011;3565;53.254;10.352;2023-08-06T15:08:59;5.10;;;4.27;;
7047;SDS011;3565;53.254;10.352;2023-08-06T15:11:29;4.90;;;4.40;;
7047;SDS011;3565;53.254;10.352;2023-08-06T15:13:58;4.67;;;4.10;;
7047;SDS011;3565;53.254;10.352;2023-08-06T15:16:27;5.33;;;4.33;;
7047;SDS011;3565;53.254;10.352;2023-08-06T15:18:56;4.47;;;3.93;;
7047;SDS011;3565;53.254;10.352;2023-08-06T15:21:25;4.03;;;3.63;;
7047;SDS011;3565;53.254;10.352;2023-08-06T15:23:54;4.00;;;3.60;;
7047;SDS011;3565;53.254;10.352;2023-08-06T15:26:24;3.90;;;3.53;;
7047;SDS011;3565;53.254;10.352;2023-08-06T15:28:54;3.93;;;3.57;;
7047;SDS011;3565;53.254;10.352;2023-08-06T15:31:25;4.40;;;3.63;;
7047;SDS011;3565;53.254;10.352;2023-08-06T15:33:57;3.60;;;3.20;;
7047;SDS011;3565;53.254;10.352;2023-08-06T15:36:26;4.00;;;3.60;;
7047;SDS011;3565;53.254;10.352;2023-08-06T15:38:57;4.73;;;3.40;;
7047;SDS011;3565;53.254;10.352;2023-08-06T15:41:36;4.33;;;3.57;;
7047;SDS011;3565;53.254;10.352;2023-08-06T15:44:05;4.80;;;3.80;;
7047;SDS011;3565;53.254;10.352;2023-08-06T15:46:35;5.83;;;3.53;;
7047;SDS011;3565;53.254;10.352;2023-08-06T15:49:05;5.13;;;3.63;;
7047;SDS011;3565;53.254;10.352;2023-08-06T15:54:12;4.20;;;3.23;;
7047;SDS011;3565;53.254;10.352;2023-08-06T15:56:41;4.47;;;3.93;;
7047;SDS011;3565;53.254;10.352;2023-08-06T15:59:24;4.80;;;3.10;;
7047;SDS011;3565;53.254;10.352;2023-08-06T16:04:31;5.50;;;3.10;;
7047;SDS011;3565;53.254;10.352;2023-08-06T16:07:01;4.67;;;3.00;;
7047;SDS011;3565;53.254;10.352;2023-08-06T16:09:31;3.90;;;3.23;;
7047;SDS011;3565;53.254;10.352;2023-08-06T16:14:41;5.03;;;3.73;;
7047;SDS011;3565;53.254;10.352;2023-08-06T16:17:15;5.07;;;3.60;;
7047;SDS011;3565;53.254;10.352;2023-08-06T16:19:46;4.93;;;3.90;;
7047;SDS011;3565;53.254;10.352;2023-08-06T16:22:25;5.23;;;3.87;;
7047;SDS011;3565;53.254;10.352;2023-08-06T16:24:54;4.23;;;3.53;;
7047;SDS011;3565;53.254;10.352;2023-08-06T16:27:24;4.60;;;3.90;;
7047;SDS011;3565;53.254;10.352;2023-08-06T16:32:30;4.57;;;3.90;;
7047;SDS011;3565;53.254;10.352;2023-08-06T16:35:00;4.77;;;4.27;;
7047;SDS011;3565;53.254;10.352;2023-08-06T16:37:30;6.53;;;4.40;;
7047;SDS011;3565;53.254;10.352;2023-08-06T16:40:00;6.57;;;4.03;;
7047;SDS011;3565;53.254;10.352;2023-08-06T16:45:18;6.27;;;4.17;;
7047;SDS011;3565;53.254;10.352;2023-08-06T16:47:47;6.30;;;4.60;;
7047;SDS011;3565;53.254;10.352;2023-08-06T16:50:17;4.77;;;4.27;;
7047;SDS011;3565;53.254;10.352;2023-08-06T16:55:23;4.67;;;4.23;;
7047;SDS011;3565;53.254;10.352;2023-08-06T16:57:52;6.07;;;4.00;;
7047;SDS011;3565;53.254;10.352;2023-08-06T17:00:21;5.00;;;4.13;;
7047;SDS011;3565;53.254;10.352;2023-08-06T17:05:27;6.20;;;4.60;;
7047;SDS011;3565;53.254;10.352;2023-08-06T17:07:56;7.50;;;5.17;;
7047;SDS011;3565;53.254;10.352;2023-08-06T17:10:26;8.13;;;4.80;;
7047;SDS011;3565;53.254;10.352;2023-08-06T17:12:57;7.37;;;5.37;;
7047;SDS011;3565;53.254;10.352;2023-08-06T17:15:35;5.50;;;4.93;;
7047;SDS011;3565;53.254;10.352;2023-08-06T17:18:04;4.83;;;4.43;;
7047;SDS011;3565;53.254;10.352;2023-08-06T17:20:35;7.57;;;4.97;;
7047;SDS011;3565;53.254;10.352;2023-08-06T17:25:41;7.43;;;4.90;;
7047;SDS011;3565;53.254;10.352;2023-08-06T17:28:11;6.53;;;4.80;;
7047;SDS011;3565;53.254;10.352;2023-08-06T17:30:40;6.80;;;4.90;;
7047;SDS011;3565;53.254;10.352;2023-08-06T17:35:47;6.90;;;4.70;;
7047;SDS011;3565;53.254;10.352;2023-08-06T17:38:16;6.97;;;4.80;;
7047;SDS011;3565;53.254;10.352;2023-08-06T17:40:55;6.70;;;4.57;;
7047;SDS011;3565;53.254;10.352;2023-08-06T17:46:03;6.90;;;4.90;;
7047;SDS011;3565;53.254;10.352;2023-08-06T17:48:32;8.53;;;4.73;;
7047;SDS011;3565;53.254;10.352;2023-08-06T17:51:01;5.17;;;4.60;;
7047;SDS011;3565;53.254;10.352;2023-08-06T17:56:07;5.17;;;4.67;;
7047;SDS011;3565;53.254;10.352;2023-08-06T17:58:36;6.20;;;5.20;;
7047;SDS011;3565;53.254;10.352;2023-08-06T18:01:06;6.00;;;5.00;;
7047;SDS011;3565;53.254;10.352;2023-08-06T18:03:35;6.20;;;4.67;;
7047;SDS011;3565;53.254;10.352;2023-08-06T18:06:13;5.80;;;5.20;;
7047;SDS011;3565;53.254;10.352;2023-08-06T18:08:42;6.60;;;5.40;;